createdAt,value
2022-08-19T00:02:15.442Z,87.74
2022-08-19T00:04:47.802Z,87.50
2022-08-19T00:07:18.240Z,87.32
2022-08-19T00:09:48.125Z,87.35
2022-08-19T00:12:19.093Z,87.08
2022-08-19T00:14:48.931Z,86.63
2022-08-19T00:17:18.850Z,86.57
2022-08-19T00:19:48.563Z,85.97
2022-08-19T00:22:18.914Z,85.48
2022-08-19T00:24:51.043Z,86.14
2022-08-19T00:27:25.532Z,86.63
2022-08-19T00:29:56.750Z,87.00
2022-08-19T00:32:26.490Z,87.38
2022-08-19T00:34:56.423Z,87.57
2022-08-19T00:37:27.241Z,88.44
2022-08-19T00:39:56.981Z,88.58
2022-08-19T00:42:29.452Z,89.34
2022-08-19T00:44:59.117Z,90.06
2022-08-19T00:47:28.210Z,90.31
2022-08-19T00:50:00.552Z,90.39
2022-08-19T00:52:36.859Z,90.45
2022-08-19T00:55:13.004Z,90.21
2022-08-19T00:57:48.760Z,90.02
2022-08-19T01:00:21.798Z,89.00
2022-08-19T01:02:51.177Z,89.25
2022-08-19T01:05:25.476Z,88.95
2022-08-19T01:07:56.994Z,89.17
2022-08-19T01:10:30.718Z,89.45
2022-08-19T01:13:06.567Z,90.26
2022-08-19T01:15:44.191Z,89.98
2022-08-19T01:18:16.293Z,90.56
2022-08-19T01:20:48.373Z,90.78
2022-08-19T01:23:20.541Z,90.91
2022-08-19T01:25:52.181Z,90.93
2022-08-19T01:28:39.942Z,91.11
2022-08-19T01:31:27.265Z,91.70
2022-08-19T01:33:59.615Z,91.88
2022-08-19T01:36:33.666Z,91.35
2022-08-19T01:39:07.007Z,91.06
2022-08-19T01:41:37.216Z,91.00
2022-08-19T01:44:17.459Z,91.00
2022-08-19T01:46:53.669Z,90.87
2022-08-19T01:49:26.401Z,90.84
2022-08-19T01:51:55.899Z,91.02
2022-08-19T01:54:28.095Z,90.20
2022-08-19T01:57:03.689Z,89.32
2022-08-19T01:59:35.135Z,89.83
2022-08-19T02:02:08.541Z,90.10
2022-08-19T02:04:40.505Z,89.04
2022-08-19T02:07:10.519Z,90.44
2022-08-19T02:09:41.942Z,90.23
2022-08-19T02:12:11.078Z,91.08
2022-08-19T02:14:40.553Z,91.05
2022-08-19T02:17:09.760Z,90.71
2022-08-19T02:19:41.025Z,90.49
2022-08-19T02:22:12.941Z,90.72
2022-08-19T02:24:43.833Z,91.15
2022-08-19T02:27:13.483Z,91.51
2022-08-19T02:29:43.732Z,91.13
2022-08-19T02:32:12.921Z,91.27
2022-08-19T02:34:42.365Z,91.76
2022-08-19T02:37:28.163Z,91.50
2022-08-19T02:40:00.037Z,91.43
2022-08-19T02:42:30.109Z,90.84
2022-08-19T02:44:59.354Z,91.52
2022-08-19T02:47:28.657Z,91.19
2022-08-19T02:49:58.268Z,91.45
2022-08-19T02:52:29.427Z,91.58
2022-08-19T02:55:01.298Z,91.82
2022-08-19T02:57:33.124Z,91.77
2022-08-19T03:00:03.673Z,92.07
2022-08-19T03:02:32.844Z,92.05
2022-08-19T03:05:03.079Z,92.58
2022-08-19T03:07:32.680Z,93.03
2022-08-19T03:10:04.093Z,93.41
2022-08-19T03:12:32.989Z,93.73
2022-08-19T03:15:01.963Z,94.31
2022-08-19T03:17:31.361Z,93.88
2022-08-19T03:20:01.029Z,94.44
2022-08-19T03:22:31.002Z,94.02
2022-08-19T03:25:00.132Z,94.86
2022-08-19T03:27:34.439Z,94.62
2022-08-19T03:30:05.327Z,94.08
2022-08-19T03:32:35.584Z,93.70
2022-08-19T03:35:10.703Z,94.04
2022-08-19T03:37:39.509Z,94.12
2022-08-19T03:40:14.550Z,94.00
2022-08-19T03:42:49.339Z,93.57
2022-08-19T03:45:18.834Z,93.20
2022-08-19T03:47:50.654Z,92.84
2022-08-19T03:50:20.390Z,93.16
2022-08-19T03:52:53.358Z,93.96
2022-08-19T03:55:23.974Z,93.68
2022-08-19T03:57:58.963Z,93.25
2022-08-19T04:00:30.591Z,94.20
2022-08-19T04:03:00.860Z,94.86
2022-08-19T04:05:30.687Z,94.66
2022-08-19T04:08:00.214Z,95.20
2022-08-19T04:10:30.562Z,95.36
2022-08-19T04:13:00.768Z,95.70
2022-08-19T04:15:34.510Z,96.64
2022-08-19T04:18:04.089Z,97.58
2022-08-19T04:20:35.051Z,98.40
2022-08-19T04:23:04.257Z,99.10
2022-08-19T04:25:38.250Z,98.31
2022-08-19T04:28:10.714Z,98.12
2022-08-19T04:30:40.948Z,98.44
2022-08-19T04:33:11.701Z,98.37
2022-08-19T04:35:43.554Z,97.77
2022-08-19T04:38:14.162Z,98.45
2022-08-19T04:41:01.861Z,98.96
2022-08-19T04:43:33.817Z,99.54
2022-08-19T04:46:07.975Z,99.62
2022-08-19T04:48:37.628Z,99.03
2022-08-19T04:51:18.504Z,98.92
2022-08-19T04:53:48.767Z,99.12
2022-08-19T04:56:20.793Z,98.77
2022-08-19T04:58:53.153Z,98.89
2022-08-19T05:01:25.891Z,98.72
2022-08-19T05:03:55.760Z,98.83
2022-08-19T05:06:26.622Z,99.03
2022-08-19T05:08:55.723Z,99.51
2022-08-19T05:11:27.790Z,98.94
2022-08-19T05:13:59.572Z,99.05
2022-08-19T05:16:30.058Z,99.37
2022-08-19T05:19:16.878Z,99.24
2022-08-19T05:22:05.381Z,99.43
2022-08-19T05:24:35.212Z,98.77
2022-08-19T05:27:06.693Z,99.05
2022-08-19T05:29:37.744Z,98.47
2022-08-19T05:32:11.680Z,97.74
2022-08-19T05:34:43.826Z,98.02
2022-08-19T05:37:13.121Z,98.87
2022-08-19T05:39:47.396Z,98.64
2022-08-19T05:42:21.146Z,98.19
2022-08-19T05:44:52.286Z,98.55
2022-08-19T05:47:22.432Z,98.61
2022-08-19T05:49:52.385Z,99.37
2022-08-19T05:52:25.913Z,99.79
2022-08-19T05:54:57.126Z,100.00
2022-08-19T05:57:29.993Z,100.00
2022-08-19T06:00:02.844Z,100.00
2022-08-19T06:02:41.015Z,100.00
2022-08-19T06:05:11.812Z,100.00
2022-08-19T06:07:42.077Z,100.00
2022-08-19T06:10:13.583Z,100.00
2022-08-19T06:12:43.659Z,100.00
2022-08-19T06:15:15.858Z,100.00
2022-08-19T06:17:46.297Z,100.00
2022-08-19T06:20:34.376Z,100.00
2022-08-19T06:23:09.426Z,100.00
2022-08-19T06:25:42.105Z,100.00
2022-08-19T06:28:15.329Z,100.00
2022-08-19T06:30:46.754Z,100.00
2022-08-19T06:33:16.890Z,99.60
2022-08-19T06:35:51.054Z,100.00
2022-08-19T06:38:21.553Z,99.31
2022-08-19T06:40:51.531Z,99.34
2022-08-19T06:43:23.597Z,99.20
2022-08-19T06:46:02.941Z,100.00
2022-08-19T06:48:37.734Z,100.00
2022-08-19T06:51:19.917Z,100.00
2022-08-19T06:53:52.617Z,100.00
2022-08-19T06:56:26.480Z,99.35
2022-08-19T06:58:56.080Z,99.45
2022-08-19T07:01:27.972Z,99.55
2022-08-19T07:03:58.480Z,97.87
2022-08-19T07:06:44.754Z,98.15
2022-08-19T07:09:18.663Z,97.52
2022-08-19T07:11:50.358Z,99.27
2022-08-19T07:14:22.500Z,99.08
2022-08-19T07:16:56.097Z,98.92
2022-08-19T07:19:28.767Z,98.86
2022-08-19T07:21:58.639Z,98.50
2022-08-19T07:24:30.306Z,98.11
2022-08-19T07:27:06.793Z,97.92
2022-08-19T07:29:44.812Z,95.69
2022-08-19T07:32:15.941Z,96.08
2022-08-19T07:34:46.433Z,94.95
2022-08-19T07:37:15.948Z,95.06
2022-08-19T07:39:45.354Z,94.62
2022-08-19T07:42:21.869Z,94.32
2022-08-19T07:44:54.238Z,93.17
2022-08-19T07:47:50.060Z,92.12
2022-08-19T07:50:16.970Z,90.27
2022-08-19T07:52:48.791Z,88.08
2022-08-19T07:55:41.626Z,87.87
2022-08-19T07:58:10.005Z,86.95
2022-08-19T08:00:39.810Z,86.17
2022-08-19T08:03:10.681Z,85.30
2022-08-19T08:05:59.725Z,84.70
2022-08-19T08:08:48.055Z,84.39
2022-08-19T08:11:24.035Z,83.56
2022-08-19T08:14:00.771Z,83.01
2022-08-19T08:16:32.253Z,82.04
2022-08-19T08:19:03.075Z,81.12
2022-08-19T08:24:13.582Z,81.14
2022-08-19T08:26:46.784Z,82.09
2022-08-19T08:29:21.673Z,82.71
2022-08-19T08:31:58.648Z,83.44
2022-08-19T08:34:31.142Z,82.45
2022-08-19T08:37:00.733Z,82.50
2022-08-19T08:39:30.083Z,81.92
2022-08-19T08:42:09.773Z,81.75
2022-08-19T08:47:25.451Z,81.71
2022-08-19T08:50:04.524Z,82.03
2022-08-19T08:52:37.188Z,80.95
2022-08-19T08:55:12.040Z,81.01
2022-08-19T08:57:52.297Z,81.12
2022-08-19T09:00:26.444Z,80.33
2022-08-19T09:03:02.135Z,80.54
2022-08-19T09:05:48.344Z,81.08
2022-08-19T09:08:28.715Z,80.90
2022-08-19T09:10:59.571Z,81.88
2022-08-19T09:13:38.798Z,80.60
2022-08-19T09:16:12.246Z,80.88
2022-08-19T09:18:43.241Z,81.21
2022-08-19T09:21:14.273Z,80.96
2022-08-19T09:23:44.744Z,79.53
2022-08-19T09:26:16.844Z,78.03
2022-08-19T09:28:48.660Z,76.17
2022-08-19T09:31:20.892Z,75.41
2022-08-19T09:33:52.291Z,75.13
2022-08-19T09:36:34.411Z,74.19
2022-08-19T09:39:04.830Z,72.74
2022-08-19T09:41:47.653Z,72.11
2022-08-19T09:44:18.373Z,71.37
2022-08-19T09:46:49.180Z,70.28
2022-08-19T09:49:19.102Z,69.19
2022-08-19T09:51:52.627Z,67.99
2022-08-19T09:54:23.713Z,68.50
2022-08-19T09:56:57.972Z,69.01
2022-08-19T09:59:29.223Z,69.99
2022-08-19T10:02:03.656Z,69.49
2022-08-19T10:04:46.604Z,70.80
2022-08-19T10:07:17.418Z,70.92
2022-08-19T10:09:46.586Z,71.79
2022-08-19T10:12:17.872Z,72.42
2022-08-19T10:14:49.151Z,72.63
2022-08-19T10:17:21.443Z,72.47
2022-08-19T10:19:55.631Z,73.23
2022-08-19T10:22:26.513Z,74.22
2022-08-19T10:24:55.957Z,75.76
2022-08-19T10:27:26.230Z,76.68
2022-08-19T10:29:55.581Z,77.94
2022-08-19T10:32:33.983Z,78.68
2022-08-19T10:35:08.922Z,79.14
2022-08-19T10:37:44.951Z,80.13
2022-08-19T10:40:26.944Z,80.24
2022-08-19T10:42:57.098Z,80.33
2022-08-19T10:45:28.268Z,80.65
2022-08-19T10:47:57.533Z,80.79
2022-08-19T10:50:45.531Z,81.03
2022-08-19T10:53:18.938Z,80.73
2022-08-19T10:56:17.777Z,79.66
2022-08-19T10:58:47.047Z,78.71
2022-08-19T11:01:15.887Z,77.81
2022-08-19T11:03:46.485Z,78.38
2022-08-19T11:06:15.227Z,77.06
2022-08-19T11:08:45.881Z,75.82
2022-08-19T11:11:14.981Z,76.22
2022-08-19T11:13:46.855Z,74.47
2022-08-19T11:16:18.866Z,72.31
2022-08-19T11:18:51.189Z,72.35
2022-08-19T11:21:22.871Z,71.61
2022-08-19T11:23:56.370Z,73.09
2022-08-19T11:26:26.630Z,73.09
2022-08-19T11:28:56.499Z,73.70
2022-08-19T11:31:32.801Z,73.23
2022-08-19T11:34:04.135Z,72.53
2022-08-19T11:36:34.397Z,70.49
2022-08-19T11:39:05.828Z,68.96
2022-08-19T11:41:34.747Z,68.62
2022-08-19T11:44:05.564Z,70.27
2022-08-19T11:46:34.532Z,69.22
2022-08-19T11:49:04.736Z,70.99
2022-08-19T11:51:34.872Z,71.08
2022-08-19T11:54:07.650Z,71.89
2022-08-19T11:56:36.485Z,74.40
2022-08-19T11:59:05.310Z,72.04
2022-08-19T12:01:35.038Z,75.06
2022-08-19T12:04:05.494Z,75.03
2022-08-19T12:06:40.553Z,75.66
2022-08-19T12:09:12.464Z,75.54
2022-08-19T12:11:42.080Z,76.33
2022-08-19T12:14:15.243Z,74.75
2022-08-19T12:16:50.436Z,73.62
2022-08-19T12:19:23.105Z,73.75
2022-08-19T12:21:53.987Z,71.43
2022-08-19T12:24:25.599Z,71.83
2022-08-19T12:26:54.496Z,72.78
2022-08-19T12:29:30.716Z,74.02
2022-08-19T12:32:04.026Z,73.03
2022-08-19T12:34:34.289Z,73.17
2022-08-19T12:37:05.703Z,73.73
2022-08-19T12:39:40.275Z,73.27
2022-08-19T12:42:09.220Z,73.04
2022-08-19T12:44:41.744Z,71.90
2022-08-19T12:47:14.079Z,72.13
2022-08-19T12:49:53.339Z,73.33
2022-08-19T12:52:26.396Z,74.77
2022-08-19T12:54:58.455Z,75.40
2022-08-19T12:57:32.925Z,75.58
2022-08-19T13:00:11.723Z,71.13
2022-08-19T13:02:45.264Z,73.36
2022-08-19T13:05:17.034Z,72.93
2022-08-19T13:07:45.885Z,73.48
2022-08-19T13:10:19.023Z,73.92
2022-08-19T13:12:50.000Z,73.57
2022-08-19T13:15:24.394Z,72.11
2022-08-19T13:17:56.806Z,71.97
2022-08-19T13:20:26.520Z,73.03
2022-08-19T13:22:58.092Z,72.27
2022-08-19T13:25:28.233Z,72.73
2022-08-19T13:27:59.140Z,72.49
2022-08-19T13:30:46.493Z,71.47
2022-08-19T13:33:16.632Z,69.49
2022-08-19T13:35:48.587Z,68.71
2022-08-19T13:38:19.456Z,68.66
2022-08-19T13:40:51.435Z,69.55
2022-08-19T13:43:23.763Z,70.00
2022-08-19T13:45:56.443Z,68.87
2022-08-19T13:48:27.616Z,67.41
2022-08-19T13:50:59.600Z,68.17
2022-08-19T13:53:34.374Z,68.51
2022-08-19T13:56:08.164Z,69.94
2022-08-19T13:58:40.406Z,70.17
2022-08-19T14:01:09.726Z,70.12
2022-08-19T14:03:38.818Z,70.20
2022-08-19T14:06:08.172Z,70.03
2022-08-19T14:08:46.071Z,69.00
2022-08-19T14:11:16.968Z,69.37
2022-08-19T14:13:45.789Z,69.85
2022-08-19T14:16:16.102Z,69.03
2022-08-19T14:18:46.123Z,68.82
2022-08-19T14:21:18.636Z,66.70
2022-08-19T14:23:47.503Z,67.42
2022-08-19T14:26:20.497Z,67.43
2022-08-19T14:28:50.470Z,69.23
2022-08-19T14:31:21.019Z,69.72
2022-08-19T14:33:51.373Z,69.32
2022-08-19T14:36:20.702Z,69.85
2022-08-19T14:38:50.606Z,69.43
2022-08-19T14:41:25.796Z,69.75
2022-08-19T14:43:56.262Z,67.23
2022-08-19T14:46:28.261Z,70.30
2022-08-19T14:48:59.882Z,70.61
2022-08-19T14:51:29.707Z,71.55
2022-08-19T14:53:58.829Z,72.52
2022-08-19T14:56:32.864Z,71.32
2022-08-19T14:59:02.199Z,70.80
2022-08-19T15:01:31.452Z,69.47
2022-08-19T15:04:01.921Z,68.25
2022-08-19T15:06:33.734Z,69.73
2022-08-19T15:09:04.603Z,69.28
2022-08-19T15:11:35.144Z,70.45
2022-08-19T15:14:04.225Z,69.59
2022-08-19T15:16:33.804Z,69.52
2022-08-19T15:19:05.426Z,70.70
2022-08-19T15:21:34.897Z,68.73
2022-08-19T15:24:04.208Z,70.40
2022-08-19T15:26:37.234Z,70.15
2022-08-19T15:29:07.006Z,69.92
2022-08-19T15:31:38.099Z,71.20
2022-08-19T15:34:08.586Z,71.62
2022-08-19T15:36:40.734Z,69.62
2022-08-19T15:39:11.058Z,70.19
2022-08-19T15:44:18.598Z,72.11
2022-08-19T15:46:49.641Z,72.26
2022-08-19T15:49:20.760Z,72.67
2022-08-19T15:51:51.886Z,70.96
2022-08-19T15:54:22.629Z,72.21
2022-08-19T15:57:19.711Z,72.96
2022-08-19T16:00:06.957Z,72.27
2022-08-19T16:02:53.858Z,72.33
2022-08-19T16:05:45.451Z,73.50
2022-08-19T16:08:15.568Z,74.46
2022-08-19T16:10:44.573Z,76.11
2022-08-19T16:13:15.384Z,76.73
2022-08-19T16:15:44.966Z,76.62
2022-08-19T16:18:13.889Z,75.91
2022-08-19T16:20:44.336Z,76.18
2022-08-19T16:23:13.180Z,76.40
2022-08-19T16:25:42.209Z,76.60
2022-08-19T16:28:11.410Z,76.35
2022-08-19T16:30:48.525Z,75.06
2022-08-19T16:33:23.055Z,76.67
2022-08-19T16:36:00.172Z,77.83
2022-08-19T16:38:33.934Z,79.65
2022-08-19T16:41:02.937Z,79.91
2022-08-19T16:43:32.081Z,81.37
2022-08-19T16:46:02.513Z,81.16
2022-08-19T16:48:33.106Z,80.96
2022-08-19T16:51:08.654Z,82.11
2022-08-19T16:53:39.745Z,80.68
2022-08-19T16:56:09.637Z,81.51
2022-08-19T16:58:38.414Z,81.61
2022-08-19T17:01:11.299Z,80.92
2022-08-19T17:03:40.100Z,79.68
2022-08-19T17:06:18.528Z,77.88
2022-08-19T17:08:51.096Z,77.30
2022-08-19T17:11:22.967Z,77.02
2022-08-19T17:13:52.599Z,77.84
2022-08-19T17:16:25.061Z,77.43
2022-08-19T17:18:54.842Z,78.17
2022-08-19T17:21:29.347Z,79.66
2022-08-19T17:23:59.274Z,79.61
2022-08-19T17:26:28.677Z,80.12
2022-08-19T17:29:00.924Z,79.75
2022-08-19T17:31:32.475Z,80.87
2022-08-19T17:34:01.585Z,80.73
2022-08-19T17:36:34.320Z,81.63
2022-08-19T17:39:05.211Z,83.55
2022-08-19T17:41:35.295Z,83.89
2022-08-19T17:44:05.592Z,83.91
2022-08-19T17:46:35.718Z,84.06
2022-08-19T17:49:04.694Z,84.43
2022-08-19T17:51:43.604Z,84.28
2022-08-19T17:54:15.277Z,83.32
2022-08-19T17:56:45.580Z,81.40
2022-08-19T17:59:15.219Z,80.14
2022-08-19T18:01:53.399Z,80.74
2022-08-19T18:04:26.789Z,80.60
2022-08-19T18:06:56.129Z,79.67
2022-08-19T18:09:26.580Z,80.38
2022-08-19T18:11:58.271Z,80.42
2022-08-19T18:14:34.088Z,81.21
2022-08-19T18:17:09.632Z,81.14
2022-08-19T18:19:41.703Z,81.27
2022-08-19T18:22:14.381Z,81.68
2022-08-19T18:24:45.978Z,81.79
2022-08-19T18:27:16.057Z,80.94
2022-08-19T18:29:45.836Z,80.18
2022-08-19T18:32:24.118Z,79.72
2022-08-19T18:34:54.707Z,81.28
2022-08-19T18:37:25.907Z,82.23
2022-08-19T18:40:13.738Z,83.24
2022-08-19T18:43:02.242Z,84.47
2022-08-19T18:45:49.119Z,85.07
2022-08-19T18:48:36.998Z,85.17
2022-08-19T18:51:06.790Z,85.74
2022-08-19T18:53:39.544Z,83.85
2022-08-19T18:56:13.197Z,82.77
2022-08-19T18:58:43.735Z,82.36
2022-08-19T19:01:20.763Z,82.74
2022-08-19T19:03:53.915Z,82.29
2022-08-19T19:06:26.903Z,81.76
2022-08-19T19:08:56.992Z,81.56
2022-08-19T19:11:29.169Z,83.34
2022-08-19T19:13:58.419Z,83.94
2022-08-19T19:16:28.022Z,85.01
2022-08-19T19:18:59.247Z,83.99
2022-08-19T19:21:34.133Z,84.11
2022-08-19T19:24:07.153Z,82.40
2022-08-19T19:26:36.763Z,84.39
2022-08-19T19:29:06.234Z,84.08
2022-08-19T19:31:37.785Z,82.51
2022-08-19T19:34:29.134Z,82.72
2022-08-19T19:36:59.705Z,83.85
2022-08-19T19:39:45.050Z,83.30
2022-08-19T19:42:20.506Z,82.76
2022-08-19T19:44:52.171Z,82.74
2022-08-19T19:47:24.617Z,83.69
2022-08-19T19:50:15.228Z,83.99
2022-08-19T19:52:47.283Z,85.34
2022-08-19T19:55:19.049Z,83.92
2022-08-19T19:57:53.507Z,84.10
2022-08-19T20:00:23.315Z,83.53
2022-08-19T20:02:56.084Z,84.91
2022-08-19T20:05:27.532Z,86.48
2022-08-19T20:08:15.248Z,87.50
2022-08-19T20:10:45.025Z,88.50
2022-08-19T20:13:16.447Z,88.62
2022-08-19T20:15:45.952Z,88.85
2022-08-19T20:18:15.516Z,88.83
2022-08-19T20:20:46.522Z,88.84
2022-08-19T20:23:15.271Z,88.57
2022-08-19T20:25:44.566Z,88.44
2022-08-19T20:28:13.665Z,88.13
2022-08-19T20:30:46.549Z,87.43
2022-08-19T20:33:17.040Z,87.42
2022-08-19T20:35:48.373Z,88.17
2022-08-19T20:38:17.128Z,88.25
2022-08-19T20:40:48.317Z,88.97
2022-08-19T20:43:16.975Z,88.97
2022-08-19T20:45:47.081Z,88.82
2022-08-19T20:48:16.201Z,88.65
2022-08-19T20:50:45.173Z,88.43
2022-08-19T20:53:18.814Z,88.43
2022-08-19T20:55:50.233Z,88.74
2022-08-19T20:58:21.233Z,88.86
2022-08-19T21:00:50.978Z,88.80
2022-08-19T21:03:22.347Z,89.16
2022-08-19T21:05:51.903Z,89.29
2022-08-19T21:08:25.702Z,88.79
2022-08-19T21:10:56.279Z,88.98
2022-08-19T21:13:26.442Z,88.34
2022-08-19T21:15:58.734Z,88.19
2022-08-19T21:18:28.819Z,88.74
2022-08-19T21:20:58.255Z,89.56
2022-08-19T21:23:30.169Z,89.92
2022-08-19T21:26:01.424Z,90.21
2022-08-19T21:28:36.105Z,90.35
2022-08-19T21:31:10.430Z,90.60
2022-08-19T21:33:40.991Z,90.48
2022-08-19T21:36:10.708Z,89.90
2022-08-19T21:38:41.761Z,90.31
2022-08-19T21:41:11.404Z,89.44
2022-08-19T21:43:41.197Z,89.56
2022-08-19T21:46:10.800Z,90.04
2022-08-19T21:48:40.705Z,90.32
2022-08-19T21:51:10.441Z,89.79
2022-08-19T21:53:41.074Z,89.44
2022-08-19T21:56:12.938Z,90.20
2022-08-19T21:58:42.331Z,90.72
2022-08-19T22:01:12.148Z,90.70
2022-08-19T22:03:41.697Z,90.65
2022-08-19T22:06:11.525Z,90.60
2022-08-19T22:08:44.842Z,90.96
2022-08-19T22:11:14.997Z,90.88
2022-08-19T22:13:46.823Z,90.96
2022-08-19T22:16:18.277Z,90.92
2022-08-19T22:18:47.258Z,90.97
2022-08-19T22:21:20.225Z,90.19
2022-08-19T22:24:10.784Z,90.70
2022-08-19T22:26:40.320Z,90.87
2022-08-19T22:29:10.643Z,90.51
2022-08-19T22:31:45.488Z,90.61
2022-08-19T22:34:24.869Z,91.09
2022-08-19T22:36:54.544Z,91.34
2022-08-19T22:39:25.153Z,91.62
2022-08-19T22:41:55.267Z,91.78
2022-08-19T22:44:24.145Z,91.94
2022-08-19T22:46:53.675Z,91.93
2022-08-19T22:49:23.016Z,91.89
2022-08-19T22:52:09.392Z,91.80
2022-08-19T22:54:42.817Z,91.69
2022-08-19T22:57:12.494Z,91.66
2022-08-19T22:59:41.954Z,91.41
2022-08-19T23:02:12.044Z,91.30
2022-08-19T23:04:41.631Z,90.92
2022-08-19T23:07:11.229Z,91.32
2022-08-19T23:09:40.961Z,91.21
2022-08-19T23:12:14.064Z,91.13
2022-08-19T23:14:44.750Z,91.08
2022-08-19T23:17:14.348Z,90.62
2022-08-19T23:19:43.346Z,90.86
2022-08-19T23:22:12.366Z,90.67
2022-08-19T23:24:42.079Z,90.41
2022-08-19T23:27:29.893Z,91.35
2022-08-19T23:30:16.682Z,92.04
2022-08-19T23:32:46.538Z,92.21
2022-08-19T23:35:15.609Z,92.76
2022-08-19T23:37:44.866Z,93.03
2022-08-19T23:40:17.556Z,93.02
2022-08-19T23:42:49.281Z,93.15
2022-08-19T23:45:23.780Z,93.24
2022-08-19T23:47:54.913Z,92.37
2022-08-19T23:50:25.853Z,93.02
2022-08-19T23:52:57.122Z,93.09
2022-08-19T23:55:29.703Z,93.29
2022-08-19T23:58:01.843Z,94.36
